createdAt,value
2022-11-08T00:00:23.291Z,8.90
2022-11-08T00:02:51.694Z,8.90
2022-11-08T00:05:37.461Z,8.90
2022-11-08T00:08:23.726Z,8.90
2022-11-08T00:11:09.411Z,8.90
2022-11-08T00:13:56.775Z,9.00
2022-11-08T00:16:25.068Z,9.10
2022-11-08T00:18:53.288Z,9.00
2022-11-08T00:21:21.637Z,9.00
2022-11-08T00:23:49.758Z,9.00
2022-11-08T00:26:17.952Z,8.90
2022-11-08T00:28:47.571Z,8.80
2022-11-08T00:31:15.792Z,8.80
2022-11-08T00:33:43.961Z,8.80
2022-11-08T00:36:12.343Z,8.90
2022-11-08T00:38:42.898Z,8.90
2022-11-08T00:41:11.266Z,9.00
2022-11-08T00:43:39.464Z,9.00
2022-11-08T00:46:09.265Z,9.00
2022-11-08T00:48:37.737Z,9.00
2022-11-08T00:51:08.265Z,9.00
2022-11-08T00:53:38.613Z,8.90
2022-11-08T00:56:08.301Z,8.90
2022-11-08T00:58:36.786Z,8.80
2022-11-08T01:01:12.396Z,8.80
2022-11-08T01:03:40.934Z,8.80
2022-11-08T01:06:12.875Z,8.90
2022-11-08T01:08:41.578Z,8.90
2022-11-08T01:11:12.061Z,8.90
2022-11-08T01:13:40.664Z,8.90
2022-11-08T01:16:12.481Z,9.00
2022-11-08T01:18:41.045Z,9.00
2022-11-08T01:21:09.598Z,9.10
2022-11-08T01:23:38.220Z,9.10
2022-11-08T01:26:08.836Z,9.00
2022-11-08T01:28:37.938Z,9.00
2022-11-08T01:31:08.387Z,9.10
2022-11-08T01:33:38.442Z,9.10
2022-11-08T01:36:08.283Z,9.10
2022-11-08T01:38:37.150Z,9.20
2022-11-08T01:41:05.478Z,9.20
2022-11-08T01:43:42.504Z,9.20
2022-11-08T01:46:39.058Z,9.20
2022-11-08T01:49:31.177Z,9.20
2022-11-08T01:52:20.659Z,9.10
2022-11-08T01:54:56.914Z,9.10
2022-11-08T01:57:29.355Z,9.10
2022-11-08T02:00:00.085Z,9.10
2022-11-08T02:02:29.214Z,9.10
2022-11-08T02:04:59.763Z,9.10
2022-11-08T02:07:29.063Z,9.00
2022-11-08T02:09:58.208Z,9.00
2022-11-08T02:12:27.907Z,9.00
2022-11-08T02:14:56.233Z,9.00
2022-11-08T02:17:24.499Z,9.10
2022-11-08T02:19:52.779Z,9.10
2022-11-08T02:22:28.848Z,9.00
2022-11-08T02:25:00.348Z,9.00
2022-11-08T02:27:28.950Z,9.00
2022-11-08T02:29:57.960Z,9.10
2022-11-08T02:32:26.285Z,9.10
2022-11-08T02:34:58.604Z,9.10
2022-11-08T02:37:27.609Z,9.10
2022-11-08T02:39:55.773Z,9.10
2022-11-08T02:42:25.491Z,9.10
2022-11-08T02:44:53.687Z,9.10
2022-11-08T02:47:21.934Z,9.20
2022-11-08T02:49:50.186Z,9.20
2022-11-08T02:52:18.523Z,9.30
2022-11-08T02:54:46.666Z,9.30
2022-11-08T02:57:15.007Z,9.30
2022-11-08T02:59:44.609Z,9.30
2022-11-08T03:02:12.876Z,9.40
2022-11-08T03:04:41.148Z,9.40
2022-11-08T03:07:09.360Z,9.40
2022-11-08T03:09:37.592Z,9.40
2022-11-08T03:12:06.216Z,9.40
2022-11-08T03:14:34.349Z,9.40
2022-11-08T03:17:04.782Z,9.40
2022-11-08T03:19:33.008Z,9.40
2022-11-08T03:22:01.735Z,9.50
2022-11-08T03:24:29.913Z,9.40
2022-11-08T03:26:58.381Z,9.40
2022-11-08T03:29:26.563Z,9.40
2022-11-08T03:31:54.840Z,9.50
2022-11-08T03:34:24.553Z,9.40
2022-11-08T03:36:52.791Z,9.30
2022-11-08T03:39:20.941Z,9.30
2022-11-08T03:41:49.265Z,9.30
2022-11-08T03:44:17.407Z,9.30
2022-11-08T03:46:45.607Z,9.30
2022-11-08T03:49:13.862Z,9.20
2022-11-08T03:51:43.542Z,9.30
2022-11-08T03:54:11.932Z,9.30
2022-11-08T03:56:40.224Z,9.40
2022-11-08T03:59:08.631Z,9.30
2022-11-08T04:01:37.072Z,9.30
2022-11-08T04:04:05.679Z,9.30
2022-11-08T04:06:34.090Z,9.20
2022-11-08T04:09:03.969Z,9.30
2022-11-08T04:11:49.951Z,9.30
2022-11-08T04:14:35.546Z,9.20
2022-11-08T04:17:03.942Z,9.30
2022-11-08T04:19:49.373Z,9.30
2022-11-08T04:22:17.795Z,9.20
2022-11-08T04:24:47.333Z,9.30
2022-11-08T04:27:15.555Z,9.30
2022-11-08T04:29:44.894Z,9.20
2022-11-08T04:32:13.157Z,9.20
2022-11-08T04:34:41.312Z,9.20
2022-11-08T04:37:09.593Z,9.20
2022-11-08T04:39:37.770Z,9.10
2022-11-08T04:42:07.550Z,9.10
2022-11-08T04:44:35.801Z,9.10
2022-11-08T04:47:04.012Z,9.00
2022-11-08T04:49:32.263Z,8.80
2022-11-08T04:52:00.510Z,8.80
2022-11-08T04:54:28.662Z,8.70
2022-11-08T04:56:57.287Z,8.60
2022-11-08T04:59:26.845Z,8.60
2022-11-08T05:01:55.202Z,8.50
2022-11-08T05:04:23.423Z,8.40
2022-11-08T05:06:51.666Z,8.40
2022-11-08T05:09:19.891Z,8.30
2022-11-08T05:11:48.195Z,8.20
2022-11-08T05:14:16.421Z,8.20
2022-11-08T05:16:46.020Z,8.10
2022-11-08T05:19:14.164Z,8.10
2022-11-08T05:22:00.075Z,8.10
2022-11-08T05:24:28.305Z,8.10
2022-11-08T05:26:56.517Z,8.10
2022-11-08T05:29:24.936Z,8.00
2022-11-08T05:31:54.514Z,8.00
2022-11-08T05:34:22.760Z,7.90
2022-11-08T05:36:51.016Z,8.00
2022-11-08T05:39:19.368Z,7.90
2022-11-08T05:41:47.554Z,7.90
2022-11-08T05:44:16.012Z,7.80
2022-11-08T05:46:44.199Z,7.90
2022-11-08T05:49:13.835Z,7.90
2022-11-08T05:51:42.011Z,7.90
2022-11-08T05:54:10.279Z,7.90
2022-11-08T05:56:38.501Z,7.90
2022-11-08T05:59:07.154Z,7.90
2022-11-08T06:01:35.943Z,7.90
2022-11-08T06:04:04.309Z,7.90
2022-11-08T06:06:34.128Z,8.00
2022-11-08T06:09:02.386Z,7.90
2022-11-08T06:11:30.644Z,8.00
2022-11-08T06:13:58.888Z,8.00
2022-11-08T06:16:27.079Z,8.00
2022-11-08T06:18:55.475Z,8.00
2022-11-08T06:21:23.924Z,8.10
2022-11-08T06:23:55.062Z,8.20
2022-11-08T06:26:24.168Z,8.20
2022-11-08T06:28:52.763Z,8.20
2022-11-08T06:31:21.073Z,8.30
2022-11-08T06:33:49.286Z,8.20
2022-11-08T06:36:17.735Z,8.30
2022-11-08T06:38:45.850Z,8.30
2022-11-08T06:41:19.822Z,8.50
2022-11-08T06:43:48.456Z,8.80
2022-11-08T06:46:16.764Z,9.10
2022-11-08T06:48:45.230Z,9.30
2022-11-08T06:51:13.569Z,9.40
2022-11-08T06:53:41.878Z,9.50
2022-11-08T06:56:10.134Z,9.60
2022-11-08T06:58:40.026Z,9.60
2022-11-08T07:01:10.518Z,9.80
2022-11-08T07:03:38.991Z,9.80
2022-11-08T07:06:07.993Z,10.00
2022-11-08T07:08:36.609Z,10.10
2022-11-08T07:11:05.235Z,10.30
2022-11-08T07:13:33.521Z,10.40
2022-11-08T07:16:03.605Z,10.20
2022-11-08T07:18:31.983Z,10.30
2022-11-08T07:21:01.507Z,10.30
2022-11-08T07:23:30.255Z,10.40
2022-11-08T07:26:02.611Z,10.40
2022-11-08T07:28:30.885Z,10.10
2022-11-08T07:31:00.035Z,10.10
2022-11-08T07:33:29.961Z,10.00
2022-11-08T07:35:58.219Z,9.90
2022-11-08T07:38:27.121Z,9.90
2022-11-08T07:40:58.682Z,9.90
2022-11-08T07:43:28.287Z,9.90
2022-11-08T07:46:01.995Z,9.80
2022-11-08T07:48:32.417Z,10.50
2022-11-08T07:51:00.893Z,10.10
2022-11-08T07:53:29.382Z,10.10
2022-11-08T07:55:58.421Z,10.00
2022-11-08T07:58:27.109Z,10.00
2022-11-08T08:00:55.414Z,10.20
2022-11-08T08:03:24.077Z,10.40
2022-11-08T08:06:00.468Z,10.60
2022-11-08T08:08:29.959Z,11.00
2022-11-08T08:11:00.494Z,11.10
2022-11-08T08:13:29.213Z,10.70
2022-11-08T08:16:00.216Z,10.90
2022-11-08T08:18:28.982Z,10.80
2022-11-08T08:20:58.806Z,10.70
2022-11-08T08:23:27.134Z,10.80
2022-11-08T08:25:55.339Z,11.10
2022-11-08T08:28:23.542Z,11.50
2022-11-08T08:30:51.761Z,11.40
2022-11-08T08:33:29.130Z,11.20
2022-11-08T08:36:01.792Z,11.20
2022-11-08T08:38:31.149Z,11.20
2022-11-08T08:40:59.785Z,11.40
2022-11-08T08:43:28.776Z,11.30
2022-11-08T08:45:59.783Z,11.40
2022-11-08T08:48:28.096Z,11.60
2022-11-08T08:50:56.543Z,12.10
2022-11-08T08:53:26.476Z,12.10
2022-11-08T08:55:54.620Z,12.00
2022-11-08T08:58:23.565Z,11.90
2022-11-08T09:03:40.666Z,12.20
2022-11-08T09:06:09.273Z,12.10
2022-11-08T09:08:38.938Z,12.40
2022-11-08T09:11:07.316Z,12.20
2022-11-08T09:13:35.589Z,12.20
2022-11-08T09:16:04.101Z,12.20
2022-11-08T09:18:33.086Z,12.60
2022-11-08T09:21:01.539Z,12.60
2022-11-08T09:23:29.856Z,12.60
2022-11-08T09:26:00.382Z,12.60
2022-11-08T09:28:31.516Z,12.90
2022-11-08T09:31:09.225Z,12.90
2022-11-08T09:33:39.116Z,13.10
2022-11-08T09:36:09.190Z,13.20
2022-11-08T09:38:37.583Z,13.70
2022-11-08T09:41:22.685Z,13.80
2022-11-08T09:44:07.748Z,13.60
2022-11-08T09:46:44.686Z,13.80
2022-11-08T09:49:19.541Z,13.90
2022-11-08T09:51:48.524Z,14.00
2022-11-08T09:54:22.039Z,13.90
2022-11-08T09:56:54.344Z,14.20
2022-11-08T09:59:34.648Z,14.30
2022-11-08T10:02:03.267Z,15.00
2022-11-08T10:04:34.137Z,14.70
2022-11-08T10:07:15.015Z,14.40
2022-11-08T10:10:05.632Z,14.00
2022-11-08T10:12:43.809Z,14.30
2022-11-08T10:15:25.353Z,14.30
2022-11-08T10:18:16.196Z,14.20
2022-11-08T10:20:57.793Z,14.10
2022-11-08T10:23:33.352Z,14.10
2022-11-08T10:26:05.575Z,14.40
2022-11-08T10:28:38.252Z,14.60
2022-11-08T10:31:07.310Z,14.60
2022-11-08T10:33:42.828Z,15.00
2022-11-08T10:36:16.234Z,15.10
2022-11-08T10:38:58.199Z,15.30
2022-11-08T10:41:33.120Z,14.80
2022-11-08T10:44:06.649Z,15.00
2022-11-08T10:46:42.516Z,15.60
2022-11-08T10:49:18.472Z,15.50
2022-11-08T10:51:48.465Z,15.20
2022-11-08T10:54:42.939Z,15.10
2022-11-08T10:57:12.795Z,15.10
2022-11-08T10:59:43.607Z,15.50
2022-11-08T11:02:24.773Z,16.20
2022-11-08T11:04:56.166Z,15.70
2022-11-08T11:07:31.972Z,15.30
2022-11-08T11:10:17.623Z,15.30
2022-11-08T11:12:50.845Z,15.10
2022-11-08T11:15:20.567Z,15.10
2022-11-08T11:17:49.015Z,15.70
2022-11-08T11:20:23.090Z,15.70
2022-11-08T11:22:53.214Z,15.30
2022-11-08T11:25:23.312Z,15.60
2022-11-08T11:27:55.426Z,15.40
2022-11-08T11:30:29.598Z,15.30
2022-11-08T11:33:23.052Z,15.30
2022-11-08T11:35:56.100Z,15.20
2022-11-08T11:38:35.479Z,15.60
2022-11-08T11:41:11.103Z,15.60
2022-11-08T11:43:45.229Z,15.30
2022-11-08T11:46:22.092Z,15.20
2022-11-08T11:48:56.529Z,15.30
2022-11-08T11:51:29.352Z,15.70
2022-11-08T11:53:58.387Z,15.80
2022-11-08T11:56:44.302Z,16.00
2022-11-08T11:59:33.144Z,15.70
2022-11-08T12:02:21.209Z,15.90
2022-11-08T12:05:10.437Z,15.80
2022-11-08T12:07:46.552Z,15.50
2022-11-08T12:10:24.320Z,15.50
2022-11-08T12:13:00.075Z,15.70
2022-11-08T12:15:35.089Z,15.50
2022-11-08T12:18:42.632Z,15.30
2022-11-08T12:21:15.106Z,15.40
2022-11-08T12:24:15.508Z,15.20
2022-11-08T12:26:52.419Z,15.60
2022-11-08T12:29:26.154Z,15.60
2022-11-08T12:32:08.407Z,15.30
2022-11-08T12:34:49.635Z,15.50
2022-11-08T12:37:28.961Z,15.80
2022-11-08T12:40:02.056Z,15.60
2022-11-08T12:42:55.821Z,15.80
2022-11-08T12:45:33.911Z,15.80
2022-11-08T12:48:12.748Z,15.60
2022-11-08T12:50:50.458Z,15.70
2022-11-08T12:53:54.248Z,15.20
2022-11-08T12:56:28.072Z,15.30
2022-11-08T12:58:57.385Z,15.40
2022-11-08T13:01:25.613Z,15.70
2022-11-08T13:04:44.834Z,15.50
2022-11-08T13:07:37.332Z,15.50
2022-11-08T13:10:14.435Z,15.40
2022-11-08T13:12:50.116Z,15.90
2022-11-08T13:15:20.768Z,15.70
2022-11-08T13:18:34.249Z,15.50
2022-11-08T13:21:42.330Z,15.30
2022-11-08T13:24:50.068Z,15.60
2022-11-08T13:27:31.501Z,15.20
2022-11-08T13:30:05.247Z,15.10
2022-11-08T13:32:52.718Z,15.10
2022-11-08T13:35:28.246Z,15.00
2022-11-08T13:38:09.192Z,15.00
2022-11-08T13:41:17.508Z,14.80
2022-11-08T13:43:49.253Z,14.80
2022-11-08T13:46:50.431Z,14.70
2022-11-08T13:49:24.310Z,14.70
2022-11-08T13:52:31.100Z,14.60
2022-11-08T13:55:00.780Z,14.60
2022-11-08T13:57:56.933Z,14.50
2022-11-08T14:00:44.411Z,14.70
2022-11-08T14:03:49.405Z,15.20
2022-11-08T14:06:27.489Z,15.30
2022-11-08T14:09:03.439Z,15.00
2022-11-08T14:11:47.877Z,14.80
2022-11-08T14:14:35.152Z,14.40
2022-11-08T14:17:36.250Z,14.20
2022-11-08T14:20:35.065Z,14.00
2022-11-08T14:23:22.129Z,13.80
2022-11-08T14:25:54.644Z,13.70
2022-11-08T14:28:26.961Z,13.60
2022-11-08T14:30:55.315Z,13.60
2022-11-08T14:33:24.955Z,13.60
2022-11-08T14:35:59.333Z,13.40
2022-11-08T14:38:28.047Z,13.20
2022-11-08T14:40:59.738Z,13.10
2022-11-08T14:43:30.422Z,13.10
2022-11-08T14:45:58.971Z,13.10
2022-11-08T14:48:30.838Z,12.80
2022-11-08T14:51:03.215Z,12.60
2022-11-08T14:53:33.260Z,12.50
2022-11-08T14:56:24.313Z,12.60
2022-11-08T14:58:55.809Z,12.40
2022-11-08T15:01:26.780Z,12.30
2022-11-08T15:03:58.543Z,12.30
2022-11-08T15:06:32.510Z,12.20
2022-11-08T15:09:02.702Z,12.20
2022-11-08T15:11:34.135Z,12.10
2022-11-08T15:14:06.113Z,12.10
2022-11-08T15:16:42.625Z,12.00
2022-11-08T15:19:28.977Z,11.90
2022-11-08T15:21:57.515Z,11.90
2022-11-08T15:24:34.702Z,11.90
2022-11-08T15:27:08.721Z,11.60
2022-11-08T15:30:00.521Z,11.60
2022-11-08T15:32:35.009Z,11.70
2022-11-08T15:35:04.181Z,11.70
2022-11-08T15:37:37.847Z,11.70
2022-11-08T15:40:08.607Z,11.60
2022-11-08T15:42:44.822Z,11.60
2022-11-08T15:45:26.055Z,11.60
2022-11-08T15:48:01.178Z,11.70
2022-11-08T15:50:31.005Z,11.60
2022-11-08T15:53:01.444Z,11.50
2022-11-08T15:55:32.104Z,11.60
2022-11-08T15:58:00.890Z,11.40
2022-11-08T16:00:32.733Z,11.40
2022-11-08T16:03:00.997Z,11.40
2022-11-08T16:05:35.649Z,11.30
2022-11-08T16:08:03.929Z,11.30
2022-11-08T16:10:35.839Z,11.30
2022-11-08T16:13:04.699Z,11.50
2022-11-08T16:15:36.058Z,11.40
2022-11-08T16:18:04.473Z,11.40
2022-11-08T16:20:35.802Z,11.30
2022-11-08T16:23:06.941Z,11.30
2022-11-08T16:25:37.615Z,11.40
2022-11-08T16:28:09.125Z,11.30
2022-11-08T16:30:39.077Z,11.40
2022-11-08T16:33:19.746Z,11.30
2022-11-08T16:35:48.432Z,11.20
2022-11-08T16:38:23.544Z,11.30
2022-11-08T16:40:52.307Z,11.20
2022-11-08T16:43:20.855Z,11.10
2022-11-08T16:46:05.054Z,11.10
2022-11-08T16:48:36.048Z,11.30
2022-11-08T16:51:07.022Z,11.30
2022-11-08T16:53:37.777Z,11.30
2022-11-08T16:56:06.039Z,11.30
2022-11-08T16:58:34.399Z,11.20
2022-11-08T17:01:10.289Z,11.10
2022-11-08T17:03:39.189Z,11.00
2022-11-08T17:06:08.088Z,10.90
2022-11-08T17:08:36.440Z,10.70
2022-11-08T17:11:04.746Z,10.90
2022-11-08T17:13:39.120Z,10.90
2022-11-08T17:16:13.248Z,10.90
2022-11-08T17:18:42.646Z,11.00
2022-11-08T17:21:42.992Z,11.00
2022-11-08T17:24:04.794Z,10.90
2022-11-08T17:26:33.247Z,11.00
2022-11-08T17:29:01.603Z,11.10
2022-11-08T17:31:31.285Z,11.00
2022-11-08T17:33:59.540Z,10.90
2022-11-08T17:36:27.694Z,11.00
2022-11-08T17:38:56.012Z,10.90
2022-11-08T17:41:24.215Z,10.90
2022-11-08T17:43:52.487Z,10.80
2022-11-08T17:46:20.698Z,10.80
2022-11-08T17:48:50.391Z,10.70
2022-11-08T17:51:18.631Z,10.70
2022-11-08T17:53:46.973Z,10.60
2022-11-08T17:56:16.254Z,10.50
2022-11-08T17:58:44.493Z,10.40
2022-11-08T18:01:12.964Z,10.40
2022-11-08T18:03:41.267Z,10.30
2022-11-08T18:06:13.311Z,10.40
2022-11-08T18:08:42.124Z,10.30
2022-11-08T18:11:10.476Z,10.30
2022-11-08T18:13:38.981Z,10.40
2022-11-08T18:16:08.569Z,10.20
2022-11-08T18:18:37.222Z,10.20
2022-11-08T18:21:05.730Z,10.00
2022-11-08T18:23:35.776Z,10.10
2022-11-08T18:26:03.957Z,10.00
2022-11-08T18:28:32.247Z,10.00
2022-11-08T18:31:05.954Z,10.00
2022-11-08T18:33:34.849Z,9.90
2022-11-08T18:36:06.725Z,10.00
2022-11-08T18:38:39.158Z,10.00
2022-11-08T18:41:07.832Z,10.00
2022-11-08T18:43:36.412Z,9.90
2022-11-08T18:46:05.615Z,9.80
2022-11-08T18:48:36.137Z,9.70
2022-11-08T18:51:05.034Z,9.70
2022-11-08T18:53:35.136Z,9.70
2022-11-08T18:56:03.422Z,9.60
2022-11-08T18:58:32.003Z,9.60
2022-11-08T19:01:00.793Z,9.50
2022-11-08T19:03:29.897Z,9.60
2022-11-08T19:05:58.404Z,9.60
2022-11-08T19:08:28.703Z,9.50
2022-11-08T19:11:01.449Z,9.60
2022-11-08T19:13:32.021Z,9.50
2022-11-08T19:16:01.623Z,9.50
2022-11-08T19:18:31.421Z,9.50
2022-11-08T19:21:02.300Z,9.50
2022-11-08T19:23:31.171Z,9.40
2022-11-08T19:26:03.282Z,9.60
2022-11-08T19:28:34.348Z,9.50
2022-11-08T19:31:02.852Z,9.50
2022-11-08T19:33:32.711Z,9.50
2022-11-08T19:36:05.427Z,9.50
2022-11-08T19:38:34.586Z,9.40
2022-11-08T19:41:05.358Z,9.40
2022-11-08T19:43:35.815Z,9.30
2022-11-08T19:46:06.544Z,9.20
2022-11-08T19:48:37.899Z,9.20
2022-11-08T19:51:09.111Z,9.20
2022-11-08T19:53:41.039Z,9.20
2022-11-08T19:56:15.288Z,9.20
2022-11-08T19:58:44.944Z,9.20
2022-11-08T20:01:16.617Z,9.20
2022-11-08T20:03:46.223Z,9.20
2022-11-08T20:06:16.081Z,9.20
2022-11-08T20:08:52.893Z,9.10
2022-11-08T20:11:25.285Z,9.10
2022-11-08T20:13:59.823Z,9.10
2022-11-08T20:16:30.653Z,9.00
2022-11-08T20:19:03.871Z,9.00
2022-11-08T20:21:35.435Z,9.10
2022-11-08T20:24:03.674Z,9.00
2022-11-08T20:26:38.369Z,9.00
2022-11-08T20:29:07.415Z,8.90
2022-11-08T20:31:36.108Z,8.80
2022-11-08T20:34:07.515Z,8.80
2022-11-08T20:36:40.245Z,8.80
2022-11-08T20:39:08.520Z,8.70
2022-11-08T20:41:39.244Z,8.70
2022-11-08T20:44:11.004Z,8.70
2022-11-08T20:46:39.872Z,8.70
2022-11-08T20:49:09.015Z,8.70
2022-11-08T20:51:37.786Z,8.60
2022-11-08T20:54:08.883Z,8.50
2022-11-08T20:56:38.842Z,8.50
2022-11-08T20:59:08.247Z,8.40
2022-11-08T21:01:37.972Z,8.30
2022-11-08T21:04:06.458Z,8.30
2022-11-08T21:06:36.416Z,8.20
2022-11-08T21:11:55.903Z,8.20
2022-11-08T21:14:26.157Z,8.20
2022-11-08T21:19:43.374Z,8.40
2022-11-08T21:22:17.714Z,8.30
2022-11-08T21:24:47.534Z,8.40
2022-11-08T21:27:18.261Z,8.40
2022-11-08T21:29:46.704Z,8.40
2022-11-08T21:32:14.972Z,8.30
2022-11-08T21:34:46.014Z,8.30
2022-11-08T21:37:15.107Z,8.30
2022-11-08T21:39:43.436Z,8.30
2022-11-08T21:42:11.811Z,8.20
2022-11-08T21:44:41.337Z,8.20
2022-11-08T21:47:09.680Z,8.30
2022-11-08T21:49:37.799Z,8.20
2022-11-08T21:52:06.666Z,8.30
2022-11-08T21:54:35.295Z,8.20
2022-11-08T21:57:03.559Z,8.20
2022-11-08T21:59:31.699Z,8.20
2022-11-08T22:02:01.327Z,8.20
2022-11-08T22:04:29.477Z,8.20
2022-11-08T22:06:57.774Z,8.20
2022-11-08T22:09:26.054Z,8.20
2022-11-08T22:11:54.361Z,8.10
2022-11-08T22:14:22.501Z,8.20
2022-11-08T22:16:50.739Z,8.10
2022-11-08T22:19:20.267Z,8.40
2022-11-08T22:21:48.492Z,8.20
2022-11-08T22:24:20.637Z,8.20
2022-11-08T22:26:50.127Z,8.20
2022-11-08T22:29:18.845Z,8.10
2022-11-08T22:31:47.142Z,8.00
2022-11-08T22:34:15.597Z,7.90
2022-11-08T22:36:46.146Z,7.90
2022-11-08T22:39:15.516Z,7.90
2022-11-08T22:41:43.841Z,7.90
2022-11-08T22:44:12.974Z,7.90
2022-11-08T22:46:42.379Z,8.00
2022-11-08T22:49:10.854Z,7.90
2022-11-08T22:51:39.824Z,7.90
2022-11-08T22:54:10.097Z,7.90
2022-11-08T22:56:38.537Z,7.80
2022-11-08T22:59:06.797Z,7.90
2022-11-08T23:01:35.550Z,7.80
2022-11-08T23:04:03.904Z,7.80
2022-11-08T23:06:32.391Z,7.70
2022-11-08T23:09:00.733Z,7.70
2022-11-08T23:11:47.884Z,7.70
2022-11-08T23:14:37.243Z,7.60
2022-11-08T23:17:07.309Z,7.70
2022-11-08T23:19:52.998Z,7.60
2022-11-08T23:22:40.184Z,7.50
2022-11-08T23:25:08.874Z,7.50
2022-11-08T23:27:55.713Z,7.40
2022-11-08T23:30:41.397Z,7.50
2022-11-08T23:33:09.526Z,7.40
2022-11-08T23:35:37.745Z,7.50
2022-11-08T23:38:05.917Z,7.40
2022-11-08T23:40:51.273Z,7.40
2022-11-08T23:43:39.066Z,7.40
2022-11-08T23:46:08.904Z,7.40
2022-11-08T23:48:37.851Z,7.30
2022-11-08T23:51:07.092Z,7.30
2022-11-08T23:53:36.889Z,7.30
2022-11-08T23:56:05.717Z,7.30
2022-11-08T23:58:35.280Z,7.20
